createdAt,value
2018-06-29T13:54:12.757Z,101446.45
2018-06-29T13:55:18.211Z,101444.89
2018-06-29T13:56:23.613Z,101438.55
2018-06-29T13:57:29.181Z,101445.03
2018-06-29T13:58:34.630Z,101436.16
2018-06-29T13:59:40.076Z,101440.00
2018-06-29T14:00:45.581Z,101441.55
2018-06-29T14:01:51.230Z,101438.78
2018-06-29T14:02:56.656Z,101440.91
2018-06-29T14:04:02.085Z,101435.09
2018-06-29T14:05:07.488Z,101433.53
2018-06-29T14:06:12.961Z,101434.13
2018-06-29T14:07:18.469Z,101432.92
2018-06-29T14:08:23.896Z,101435.80
2018-06-29T14:09:29.792Z,101436.74
2018-06-29T14:10:35.221Z,101440.69
2018-06-29T14:11:40.632Z,101440.20
2018-06-29T14:12:46.258Z,101430.52
2018-06-29T14:13:51.690Z,101436.70
2018-06-29T14:14:57.185Z,101430.59
2018-06-29T14:16:02.636Z,101430.84
2018-06-29T14:17:08.060Z,101430.03
2018-06-29T14:18:13.489Z,101425.86
2018-06-29T14:19:18.928Z,101427.67
2018-06-29T14:20:24.505Z,101428.62
2018-06-29T14:21:29.920Z,101431.72
2018-06-29T14:22:35.369Z,101415.57
2018-06-29T14:23:41.077Z,101418.56
2018-06-29T14:24:46.140Z,101427.67
2018-06-29T14:25:51.445Z,101435.09
2018-06-29T14:26:56.865Z,101429.69
2018-06-29T14:28:02.302Z,101424.45
2018-06-29T14:29:07.700Z,101423.01
2018-06-29T14:30:13.180Z,101429.11
2018-06-29T14:31:18.613Z,101415.95
2018-06-29T14:32:24.016Z,101419.05
2018-06-29T14:33:29.548Z,101424.66
2018-06-29T14:34:34.966Z,101414.70
2018-06-29T14:35:40.450Z,101420.67
2018-06-29T14:36:45.889Z,101408.77
2018-06-29T14:37:51.294Z,101416.64
2018-06-29T14:38:56.678Z,101422.00
2018-06-29T14:40:02.070Z,101420.53
2018-06-29T14:41:07.518Z,101421.61
2018-06-29T14:42:13.012Z,101412.41
2018-06-29T14:43:18.440Z,101415.87
2018-06-29T14:44:23.914Z,101408.84
2018-06-29T14:45:29.509Z,101416.89
2018-06-29T14:46:34.900Z,101413.03
2018-06-29T14:47:40.349Z,101405.89
2018-06-29T14:48:45.762Z,101405.62
2018-06-29T14:49:51.717Z,101410.18
2018-06-29T14:50:57.177Z,101409.53
2018-06-29T14:52:02.633Z,101405.91
2018-06-29T14:53:08.124Z,101405.75
2018-06-29T14:54:13.577Z,101412.77
2018-06-29T14:55:19.014Z,101406.09
2018-06-29T14:56:24.715Z,101404.72
2018-06-29T14:57:30.306Z,101401.42
2018-06-29T14:58:36.504Z,101403.92
2018-06-29T14:59:42.211Z,101401.62
2018-06-29T15:00:47.975Z,101396.06
2018-06-29T15:01:53.585Z,101399.22
2018-06-29T15:02:59.158Z,101405.05
2018-06-29T15:04:04.685Z,101404.05
2018-06-29T15:05:10.881Z,101407.76
2018-06-29T15:06:16.411Z,101399.28
2018-06-29T15:07:21.993Z,101403.30
2018-06-29T15:08:27.532Z,101409.49
2018-06-29T15:09:33.053Z,101407.23
2018-06-29T15:10:38.422Z,101412.57
2018-06-29T15:11:43.849Z,101412.92
2018-06-29T15:12:49.441Z,101408.14
2018-06-29T15:13:54.901Z,101411.88
2018-06-29T15:15:00.327Z,101410.56
2018-06-29T15:16:05.792Z,101411.62
2018-06-29T15:17:11.701Z,101408.49
2018-06-29T15:18:17.409Z,101404.64
2018-06-29T15:19:22.833Z,101407.39
2018-06-29T15:20:28.240Z,101400.52
2018-06-29T15:21:33.726Z,101398.53
2018-06-29T15:22:39.416Z,101396.91
2018-06-29T15:23:45.006Z,101401.55
2018-06-29T15:24:50.474Z,101404.91
2018-06-29T15:25:55.865Z,101404.53
2018-06-29T15:27:01.326Z,101405.09
2018-06-29T15:28:07.185Z,101400.24
2018-06-29T15:29:12.636Z,101409.05
2018-06-29T15:30:18.061Z,101399.46
2018-06-29T15:31:23.496Z,101404.84
2018-06-29T15:32:29.122Z,101400.95
2018-06-29T15:33:34.521Z,101399.36
2018-06-29T15:34:40.114Z,101395.50
2018-06-29T15:35:45.505Z,101398.48
2018-06-29T15:36:51.568Z,101401.73
2018-06-29T15:37:56.954Z,101401.83
2018-06-29T15:39:02.394Z,101397.41
2018-06-29T15:40:07.929Z,101387.91
2018-06-29T15:41:13.334Z,101390.09
2018-06-29T15:42:18.713Z,101388.56
2018-06-29T15:43:24.198Z,101385.91
2018-06-29T15:44:29.649Z,101386.70
2018-06-29T15:45:35.169Z,101381.12
2018-06-29T15:46:40.633Z,101383.25
2018-06-29T15:47:46.082Z,101386.16
2018-06-29T15:48:51.506Z,101387.25
2018-06-29T15:49:56.913Z,101390.11
2018-06-29T15:51:02.367Z,101388.89
2018-06-29T15:52:07.829Z,101381.05
2018-06-29T15:53:13.228Z,101384.77
2018-06-29T15:54:18.637Z,101380.05
2018-06-29T15:55:24.035Z,101382.47
2018-06-29T15:56:29.580Z,101381.80
2018-06-29T15:57:34.763Z,101390.41
2018-06-29T15:58:40.150Z,101390.25
2018-06-29T15:59:45.572Z,101384.09
2018-06-29T16:00:51.031Z,101380.62
2018-06-29T16:01:56.827Z,101375.36
2018-06-29T16:03:02.309Z,101379.19
2018-06-29T16:04:07.937Z,101375.81
2018-06-29T16:05:13.316Z,101382.48
2018-06-29T16:06:18.764Z,101377.48
2018-06-29T16:07:24.566Z,101379.78
2018-06-29T16:08:30.001Z,101376.48
2018-06-29T16:09:35.380Z,101375.61
2018-06-29T16:10:40.794Z,101377.95
2018-06-29T16:11:46.193Z,101379.80
2018-06-29T16:12:51.682Z,101377.23
2018-06-29T16:13:57.225Z,101372.08
2018-06-29T16:15:02.698Z,101384.03
2018-06-29T16:16:08.188Z,101375.02
2018-06-29T16:17:13.650Z,101374.03
2018-06-29T16:18:19.045Z,101371.02
2018-06-29T16:19:24.490Z,101369.56
2018-06-29T16:20:29.872Z,101371.00
2018-06-29T16:21:35.331Z,101375.63
2018-06-29T16:22:40.771Z,101368.06
2018-06-29T16:23:46.666Z,101369.80
2018-06-29T16:24:52.047Z,101359.30
2018-06-29T16:25:57.462Z,101368.63
2018-06-29T16:27:02.873Z,101369.09
2018-06-29T16:28:08.301Z,101364.57
2018-06-29T16:29:13.958Z,101367.16
2018-06-29T16:30:19.375Z,101361.94
2018-06-29T16:31:24.862Z,101359.88
2018-06-29T16:32:30.299Z,101370.59
2018-06-29T16:33:35.684Z,101364.83
2018-06-29T16:34:41.142Z,101360.62
2018-06-29T16:35:46.601Z,101367.48
2018-06-29T16:36:52.057Z,101362.47
2018-06-29T16:37:57.481Z,101367.27
2018-06-29T16:39:02.946Z,101360.54
2018-06-29T16:40:08.375Z,101364.36
2018-06-29T16:41:13.895Z,101361.19
2018-06-29T16:42:19.405Z,101362.75
2018-06-29T16:43:24.834Z,101364.03
2018-06-29T16:44:30.247Z,101364.23
2018-06-29T16:45:35.679Z,101367.14
2018-06-29T16:46:41.159Z,101370.30
2018-06-29T16:47:46.725Z,101365.58
2018-06-29T16:48:52.126Z,101368.15
2018-06-29T16:49:57.857Z,101375.89
2018-06-29T16:51:03.266Z,101372.80
2018-06-29T16:52:08.709Z,101370.80
2018-06-29T16:53:14.440Z,101369.53
2018-06-29T16:54:19.821Z,101366.89
2018-06-29T16:55:25.220Z,101366.84
2018-06-29T16:56:30.648Z,101370.81
2018-06-29T16:57:36.066Z,101371.36
2018-06-29T16:58:41.472Z,101371.72
2018-06-29T16:59:46.874Z,101364.73
2018-06-29T17:00:52.292Z,101372.41
2018-06-29T17:01:57.789Z,101364.41
2018-06-29T17:03:03.241Z,101356.91
2018-06-29T17:04:08.645Z,101357.05
2018-06-29T17:05:14.049Z,101359.06
2018-06-29T17:06:19.554Z,101353.21
2018-06-29T17:07:24.960Z,101356.67
2018-06-29T17:08:30.361Z,101356.43
2018-06-29T17:09:35.800Z,101364.75
2018-06-29T17:10:41.240Z,101363.34
2018-06-29T17:11:46.817Z,101366.05
2018-06-29T17:12:52.236Z,101365.30
2018-06-29T17:13:57.798Z,101359.56
2018-06-29T17:15:03.179Z,101362.34
2018-06-29T17:16:08.561Z,101364.12
2018-06-29T17:17:14.411Z,101364.80
2018-06-29T17:18:19.817Z,101360.84
2018-06-29T17:19:25.244Z,101364.25
2018-06-29T17:20:30.746Z,101359.83
2018-06-29T17:21:36.193Z,101360.38
2018-06-29T17:22:41.656Z,101359.95
2018-06-29T17:23:47.225Z,101361.95
2018-06-29T17:24:52.590Z,101360.58
2018-06-29T17:25:57.976Z,101354.00
2018-06-29T17:27:03.345Z,101357.16
2018-06-29T17:28:09.024Z,101357.20
2018-06-29T17:29:14.493Z,101360.52
2018-06-29T17:30:19.848Z,101356.79
2018-06-29T17:31:25.225Z,101356.58
2018-06-29T17:32:30.621Z,101356.86
2018-06-29T17:33:36.324Z,101357.07
2018-06-29T17:34:41.764Z,101352.31
2018-06-29T17:35:47.218Z,101353.20
2018-06-29T17:36:52.698Z,101357.75
2018-06-29T17:37:58.129Z,101354.78
2018-06-29T17:39:04.245Z,101354.55
2018-06-29T17:40:09.698Z,101361.20
2018-06-29T17:41:15.130Z,101364.75
2018-06-29T17:42:20.578Z,101360.70
2018-06-29T17:43:25.961Z,101353.66
2018-06-29T17:44:31.404Z,101355.08
2018-06-29T17:45:36.801Z,101352.84
2018-06-29T17:46:42.307Z,101357.27
2018-06-29T17:47:47.925Z,101354.49
2018-06-29T17:48:53.318Z,101349.16
2018-06-29T17:49:58.741Z,101349.16
2018-06-29T17:51:04.158Z,101355.55
2018-06-29T17:52:09.634Z,101354.64
2018-06-29T17:53:15.033Z,101346.84
2018-06-29T17:54:20.519Z,101347.12
2018-06-29T17:55:25.664Z,101351.95
2018-06-29T17:56:30.980Z,101345.01
2018-06-29T17:57:36.433Z,101348.90
2018-06-29T17:58:41.917Z,101344.05
2018-06-29T17:59:47.407Z,101349.19
2018-06-29T18:00:52.893Z,101345.52
2018-06-29T18:01:58.240Z,101346.92
2018-06-29T18:03:03.813Z,101350.08
2018-06-29T18:04:09.217Z,101347.72
2018-06-29T18:05:14.628Z,101343.92
2018-06-29T18:06:20.088Z,101344.75
2018-06-29T18:07:25.524Z,101345.96
2018-06-29T18:08:30.944Z,101339.52
2018-06-29T18:09:36.383Z,101343.13
2018-06-29T18:10:41.845Z,101346.09
2018-06-29T18:11:47.272Z,101346.28
2018-06-29T18:12:52.829Z,101342.11
2018-06-29T18:13:58.154Z,101341.38
2018-06-29T18:15:03.643Z,101340.98
2018-06-29T18:16:09.280Z,101342.30
2018-06-29T18:17:14.625Z,101339.33
2018-06-29T18:18:20.057Z,101343.34
2018-06-29T18:19:25.473Z,101341.56
2018-06-29T18:20:30.869Z,101341.56
2018-06-29T18:21:36.324Z,101344.72
2018-06-29T18:22:41.439Z,101348.64
2018-06-29T18:23:46.778Z,101340.51
2018-06-29T18:24:52.422Z,101342.94
2018-06-29T18:25:57.880Z,101347.11
2018-06-29T18:27:03.293Z,101350.69
2018-06-29T18:28:08.773Z,101344.50
2018-06-29T18:29:14.197Z,101347.30
2018-06-29T18:30:19.573Z,101349.92
2018-06-29T18:31:25.346Z,101351.51
2018-06-29T18:32:30.713Z,101350.78
2018-06-29T18:33:36.152Z,101348.28
2018-06-29T18:34:41.552Z,101347.92
2018-06-29T18:35:48.979Z,101349.23
2018-06-29T18:36:54.793Z,101347.83
2018-06-29T18:38:00.177Z,101343.91
2018-06-29T18:39:09.466Z,101345.41
2018-06-29T18:40:15.023Z,101351.23
2018-06-29T18:41:20.462Z,101350.58
2018-06-29T18:42:25.934Z,101347.33
2018-06-29T18:43:31.336Z,101347.90
2018-06-29T18:44:36.755Z,101351.36
2018-06-29T18:45:42.162Z,101348.13
2018-06-29T18:46:47.609Z,101348.95
2018-06-29T18:47:53.489Z,101350.83
2018-06-29T18:48:58.973Z,101347.86
2018-06-29T18:50:05.021Z,101343.88
2018-06-29T18:51:10.468Z,101342.84
2018-06-29T18:52:15.884Z,101349.77
2018-06-29T18:53:21.337Z,101350.30
2018-06-29T18:54:26.738Z,101345.16
2018-06-29T18:55:32.204Z,101351.87
2018-06-29T18:56:38.021Z,101352.05
2018-06-29T18:57:43.520Z,101353.56
2018-06-29T18:58:48.929Z,101357.66
2018-06-29T18:59:54.329Z,101355.61
2018-06-29T19:00:59.789Z,101357.56
2018-06-29T19:02:05.846Z,101358.66
2018-06-29T19:03:11.261Z,101359.70
2018-06-29T19:04:16.760Z,101355.39
2018-06-29T19:05:22.503Z,101354.74
2018-06-29T19:06:27.922Z,101355.13
2018-06-29T19:07:33.557Z,101359.42
2018-06-29T19:08:38.984Z,101351.77
2018-06-29T19:09:44.614Z,101356.08
2018-06-29T19:10:50.037Z,101359.68
2018-06-29T19:11:55.446Z,101355.67
2018-06-29T19:13:01.056Z,101351.58
2018-06-29T19:14:07.119Z,101348.87
2018-06-29T19:15:12.725Z,101352.87
2018-06-29T19:16:18.158Z,101359.65
2018-06-29T19:17:23.613Z,101355.72
2018-06-29T19:18:29.125Z,101358.07
2018-06-29T19:19:34.564Z,101359.73
2018-06-29T19:20:39.772Z,101356.11
2018-06-29T19:21:45.053Z,101357.58
2018-06-29T19:22:50.457Z,101352.73
2018-06-29T19:23:56.069Z,101353.66
2018-06-29T19:25:01.476Z,101356.10
2018-06-29T19:26:06.942Z,101356.77
2018-06-29T19:27:12.364Z,101356.93
2018-06-29T19:28:17.912Z,101357.80
2018-06-29T19:29:23.388Z,101359.66
2018-06-29T19:30:28.899Z,101358.80
2018-06-29T19:31:34.373Z,101364.20
2018-06-29T19:32:39.804Z,101360.55
2018-06-29T19:33:45.199Z,101366.59
2018-06-29T19:34:50.617Z,101362.37
2018-06-29T19:35:56.025Z,101355.72
2018-06-29T19:37:01.417Z,101357.62
2018-06-29T19:38:06.880Z,101357.39
2018-06-29T19:39:12.946Z,101361.34
2018-06-29T19:40:19.029Z,101361.50
2018-06-29T19:41:25.426Z,101362.45
2018-06-29T19:42:30.864Z,101365.17
2018-06-29T19:43:36.944Z,101365.13
2018-06-29T19:44:42.345Z,101371.69
2018-06-29T19:45:47.772Z,101365.65
2018-06-29T19:46:52.919Z,101365.88
2018-06-29T19:47:58.585Z,101363.75
2018-06-29T19:49:04.102Z,101368.56
2018-06-29T19:50:09.874Z,101371.92
2018-06-29T19:51:15.261Z,101369.20
2018-06-29T19:52:20.665Z,101372.98
2018-06-29T19:53:26.076Z,101377.25
2018-06-29T19:54:31.484Z,101381.00
2018-06-29T19:55:36.905Z,101381.00
2018-06-29T19:56:42.376Z,101379.45
2018-06-29T19:57:47.536Z,101376.65
2018-06-29T19:58:52.982Z,101380.30
2018-06-29T19:59:58.405Z,101377.03
2018-06-29T20:01:03.835Z,101376.37
2018-06-29T20:02:09.441Z,101370.98
2018-06-29T20:03:14.884Z,101376.80
2018-06-29T20:04:20.344Z,101381.65
2018-06-29T20:05:25.764Z,101377.75
2018-06-29T20:06:31.268Z,101382.27
2018-06-29T20:07:36.770Z,101383.17
2018-06-29T20:08:42.206Z,101377.75
2018-06-29T20:09:47.609Z,101379.44
2018-06-29T20:10:53.041Z,101379.89
2018-06-29T20:11:58.518Z,101376.31
2018-06-29T20:13:03.643Z,101374.39
2018-06-29T20:14:10.665Z,101375.16
2018-06-29T20:15:16.140Z,101368.52
2018-06-29T20:16:21.645Z,101372.17
2018-06-29T20:17:27.056Z,101377.30
2018-06-29T20:18:32.694Z,101379.96
2018-06-29T20:19:38.109Z,101374.91
2018-06-29T20:20:43.680Z,101382.09
2018-06-29T20:21:48.997Z,101385.56
2018-06-29T20:22:54.496Z,101387.40
2018-06-29T20:24:00.384Z,101394.33
2018-06-29T20:25:06.251Z,101384.19
2018-06-29T20:26:11.669Z,101391.98
2018-06-29T20:27:17.092Z,101396.02
2018-06-29T20:28:22.553Z,101393.56
2018-06-29T20:29:27.999Z,101396.15
2018-06-29T20:30:33.535Z,101395.47
2018-06-29T20:31:38.980Z,101396.58
2018-06-29T20:32:44.406Z,101399.34
2018-06-29T20:33:49.897Z,101401.54
2018-06-29T20:34:55.413Z,101398.98
2018-06-29T20:36:00.837Z,101397.52
2018-06-29T20:37:06.520Z,101397.16
2018-06-29T20:38:12.052Z,101396.45
2018-06-29T20:39:17.433Z,101393.39
2018-06-29T20:40:22.890Z,101396.66
2018-06-29T20:41:28.316Z,101394.59
2018-06-29T20:42:33.709Z,101398.32
2018-06-29T20:43:39.308Z,101396.39
2018-06-29T20:44:44.746Z,101394.20
2018-06-29T20:45:50.144Z,101394.89
2018-06-29T20:46:55.589Z,101401.05
2018-06-29T20:48:01.035Z,101401.19
2018-06-29T20:49:07.014Z,101406.97
2018-06-29T20:50:12.460Z,101400.88
2018-06-29T20:51:17.878Z,101400.12
2018-06-29T20:52:23.308Z,101400.48
2018-06-29T20:53:28.702Z,101402.65
2018-06-29T20:54:34.134Z,101409.20
2018-06-29T20:55:39.701Z,101407.73
2018-06-29T20:56:45.118Z,101403.97
2018-06-29T20:57:50.545Z,101406.10
2018-06-29T20:58:55.989Z,101411.45
2018-06-29T21:00:01.779Z,101405.99
2018-06-29T21:01:07.264Z,101405.63
2018-06-29T21:02:12.745Z,101409.08
2018-06-29T21:03:17.952Z,101412.00
2018-06-29T21:04:23.280Z,101410.31
2018-06-29T21:05:28.712Z,101411.36
2018-06-29T21:06:34.121Z,101420.33
2018-06-29T21:07:40.272Z,101414.74
2018-06-29T21:08:46.344Z,101410.18
2018-06-29T21:09:51.749Z,101414.50
2018-06-29T21:10:57.332Z,101403.87
2018-06-29T21:12:02.786Z,101415.14
2018-06-29T21:13:08.188Z,101412.09
2018-06-29T21:14:13.793Z,101408.02
2018-06-29T21:15:19.247Z,101404.52
2018-06-29T21:16:24.727Z,101409.84
2018-06-29T21:17:30.409Z,101411.84
2018-06-29T21:18:35.892Z,101413.80
2018-06-29T21:19:41.310Z,101410.00
2018-06-29T21:20:46.742Z,101414.66
2018-06-29T21:21:52.170Z,101416.08
2018-06-29T21:22:57.582Z,101408.42
2018-06-29T21:24:03.062Z,101411.02
2018-06-29T21:25:08.775Z,101411.67
2018-06-29T21:26:14.625Z,101414.91
2018-06-29T21:27:21.965Z,101410.97
2018-06-29T21:28:27.587Z,101410.28
2018-06-29T21:29:33.001Z,101410.09
2018-06-29T21:30:38.465Z,101409.63
2018-06-29T21:31:44.168Z,101408.34
2018-06-29T21:32:49.576Z,101411.86
2018-06-29T21:33:54.991Z,101414.58
2018-06-29T21:35:00.392Z,101421.45
2018-06-29T21:36:05.818Z,101417.35
2018-06-29T21:37:11.213Z,101419.64
2018-06-29T21:38:16.633Z,101416.98
2018-06-29T21:39:22.018Z,101420.47
2018-06-29T21:40:27.522Z,101421.77
2018-06-29T21:41:33.003Z,101428.93
2018-06-29T21:42:38.429Z,101426.05
2018-06-29T21:43:43.842Z,101426.80
2018-06-29T21:44:49.318Z,101429.81
2018-06-29T21:45:54.741Z,101427.44
2018-06-29T21:47:00.186Z,101428.20
2018-06-29T21:48:06.249Z,101428.54
2018-06-29T21:49:11.698Z,101425.95
2018-06-29T21:50:17.138Z,101423.07
2018-06-29T21:51:22.743Z,101419.53
2018-06-29T21:52:28.444Z,101417.25
2018-06-29T21:53:33.910Z,101419.64
2018-06-29T21:54:39.274Z,101414.59
2018-06-29T21:55:44.717Z,101417.25
2018-06-29T21:56:50.144Z,101418.54
2018-06-29T21:57:55.657Z,101417.44
2018-06-29T21:59:01.044Z,101415.95
2018-06-29T22:00:10.543Z,101409.63
2018-06-29T22:01:16.283Z,101412.70
2018-06-29T22:02:21.711Z,101409.94
2018-06-29T22:03:27.161Z,101412.47
2018-06-29T22:04:32.572Z,101412.13
2018-06-29T22:05:39.857Z,101413.57
2018-06-29T22:06:45.571Z,101415.58
2018-06-29T22:07:50.991Z,101420.94
2018-06-29T22:08:56.416Z,101415.04
2018-06-29T22:10:01.847Z,101414.58
2018-06-29T22:11:07.594Z,101419.14
2018-06-29T22:12:13.073Z,101417.75
2018-06-29T22:13:18.158Z,101416.92
2018-06-29T22:14:23.946Z,101419.00
2018-06-29T22:15:29.502Z,101416.47
2018-06-29T22:16:34.977Z,101415.89
2018-06-29T22:17:40.534Z,101414.77
2018-06-29T22:18:45.948Z,101417.16
2018-06-29T22:19:51.353Z,101421.57
2018-06-29T22:20:57.465Z,101420.73
2018-06-29T22:22:02.892Z,101413.86
2018-06-29T22:23:08.312Z,101413.14
2018-06-29T22:24:13.773Z,101411.84
2018-06-29T22:25:19.784Z,101406.41
2018-06-29T22:26:25.246Z,101414.92
2018-06-29T22:27:30.692Z,101413.26
2018-06-29T22:28:36.122Z,101414.27
2018-06-29T22:29:41.560Z,101415.31
2018-06-29T22:30:47.032Z,101410.55
2018-06-29T22:31:52.429Z,101409.71
2018-06-29T22:32:57.877Z,101417.28
2018-06-29T22:34:03.429Z,101418.17
2018-06-29T22:35:08.921Z,101412.67
2018-06-29T22:36:14.348Z,101418.91
2018-06-29T22:37:19.748Z,101414.44
2018-06-29T22:38:25.169Z,101414.87
2018-06-29T22:39:30.957Z,101411.96
2018-06-29T22:40:36.382Z,101413.94
2018-06-29T22:41:42.897Z,101412.33
2018-06-29T22:42:48.545Z,101413.21
2018-06-29T22:43:54.007Z,101412.95
2018-06-29T22:44:59.873Z,101413.21
2018-06-29T22:46:05.297Z,101414.50
2018-06-29T22:47:10.759Z,101416.15
2018-06-29T22:48:16.186Z,101416.72
2018-06-29T22:49:21.582Z,101414.59
2018-06-29T22:50:27.033Z,101409.01
2018-06-29T22:51:32.579Z,101420.66
2018-06-29T22:52:37.984Z,101425.99
2018-06-29T22:53:43.410Z,101418.63
2018-06-29T22:54:48.805Z,101422.77
2018-06-29T22:55:54.017Z,101420.81
2018-06-29T22:56:59.358Z,101415.22
2018-06-29T22:58:05.130Z,101414.70
2018-06-29T22:59:10.594Z,101414.23
2018-06-29T23:00:16.085Z,101415.53
2018-06-29T23:01:21.595Z,101416.26
2018-06-29T23:02:27.011Z,101414.34
2018-06-29T23:03:37.716Z,101413.92
2018-06-29T23:04:43.194Z,101415.59
2018-06-29T23:05:48.646Z,101412.73
2018-06-29T23:06:54.062Z,101409.52
2018-06-29T23:07:59.464Z,101407.91
2018-06-29T23:09:06.349Z,101412.25
2018-06-29T23:10:11.798Z,101414.16
2018-06-29T23:11:17.490Z,101410.71
2018-06-29T23:12:22.933Z,101415.73
2018-06-29T23:13:28.339Z,101418.72
2018-06-29T23:14:33.766Z,101410.71
2018-06-29T23:15:39.204Z,101412.67
2018-06-29T23:16:44.734Z,101411.79
2018-06-29T23:17:50.276Z,101407.97
2018-06-29T23:18:55.669Z,101412.30
2018-06-29T23:20:01.070Z,101410.02
2018-06-29T23:21:06.542Z,101410.44
2018-06-29T23:22:12.040Z,101410.06
2018-06-29T23:23:17.657Z,101413.54
2018-06-29T23:24:23.483Z,101410.17
2018-06-29T23:25:29.056Z,101412.76
2018-06-29T23:26:34.464Z,101405.16
2018-06-29T23:27:39.884Z,101406.45
2018-06-29T23:28:45.349Z,101408.09
2018-06-29T23:29:50.799Z,101408.61
2018-06-29T23:30:56.238Z,101406.02
2018-06-29T23:32:01.665Z,101402.52
2018-06-29T23:33:07.597Z,101404.54
2018-06-29T23:34:13.013Z,101401.06
2018-06-29T23:35:18.482Z,101407.85
2018-06-29T23:36:23.900Z,101403.66
2018-06-29T23:37:29.322Z,101399.87
2018-06-29T23:38:34.743Z,101402.14
2018-06-29T23:39:40.149Z,101404.27
2018-06-29T23:40:45.713Z,101399.61
2018-06-29T23:41:51.130Z,101399.98
2018-06-29T23:42:56.540Z,101400.12
2018-06-29T23:44:01.928Z,101397.73
2018-06-29T23:45:07.689Z,101394.78
2018-06-29T23:46:13.319Z,101397.36
2018-06-29T23:47:18.749Z,101391.73
2018-06-29T23:48:24.195Z,101388.88
2018-06-29T23:49:29.645Z,101389.25
2018-06-29T23:50:35.125Z,101391.52
2018-06-29T23:51:40.627Z,101386.02
2018-06-29T23:52:46.146Z,101386.02
2018-06-29T23:53:51.568Z,101389.27
2018-06-29T23:54:56.964Z,101389.38
2018-06-29T23:56:02.049Z,101387.41
2018-06-29T23:57:07.672Z,101387.81
2018-06-29T23:58:13.085Z,101388.48
2018-06-29T23:59:18.496Z,101394.03
